Time;durP1;ratioP1;P1;durP2;ratioP2;P2;SDS_P1;SDS_P2;PMS_P1;PMS_P2;Temp;Humidity;BMP_temperature;BMP_pressure;BME280_temperature;BME280_humidity;BME280_pressure;Samples;Min_cycle;Max_cycle;Signal;HPM_P1;HPM_P2
2023/11/05 00:02:03;;;;;;;0.50;0.20;;;;;;;10.35;70.23;151277.34;10358405;28;20084;-76
2023/11/05 00:07:05;;;;;;;0.25;0.20;;;;;;;10.36;69.90;151279.94;10374608;28;20064;-76
2023/11/05 00:12:08;;;;;;;0.20;0.20;;;;;;;10.37;69.45;151282.53;10375817;28;20046;-75
2023/11/05 00:17:10;;;;;;;0.30;0.20;;;;;;;10.27;69.58;151256.66;10357523;28;20041;-75
2023/11/05 00:22:13;;;;;;;0.70;0.40;;;;;;;10.47;68.16;151307.03;10374731;28;20120;-75
2023/11/05 00:27:15;;;;;;;0.32;0.20;;;;;;;10.20;70.07;151238.56;10374660;28;20113;-75
2023/11/05 00:32:16;;;;;;;0.40;0.22;;;;;;;10.09;71.57;151211.44;10372962;28;20077;-76
2023/11/05 00:37:18;;;;;;;0.40;0.20;;;;;;;10.20;70.33;151238.56;10374440;28;20405;-76
2023/11/05 00:42:20;;;;;;;0.20;0.20;;;;;;;10.29;70.69;151261.84;10373051;28;20049;-76
2023/11/05 00:47:22;;;;;;;0.40;0.30;;;;;;;10.26;69.85;151254.09;10364692;28;20084;-76
2023/11/05 00:52:23;;;;;;;0.22;0.22;;;;;;;10.25;69.88;151252.81;10381549;28;20089;-76
2023/11/05 00:57:25;;;;;;;0.25;0.20;;;;;;;10.22;69.26;151245.00;10382076;28;20103;-76
2023/11/05 01:02:27;;;;;;;0.40;0.20;;;;;;;10.23;69.49;151247.63;10380627;28;20123;-76
2023/11/05 01:07:29;;;;;;;0.30;0.20;;;;;;;10.23;69.68;151246.34;10393302;23;20060;-71
2023/11/05 01:12:31;;;;;;;1.30;0.40;;;;;;;10.15;69.63;151225.69;10380161;28;20053;-72
2023/11/05 01:17:33;;;;;;;0.88;0.35;;;;;;;10.13;70.11;151221.78;10379794;28;20124;-71
2023/11/05 01:22:35;;;;;;;0.40;0.30;;;;;;;10.21;70.60;151241.16;10380934;28;20041;-70
2023/11/05 01:27:37;;;;;;;0.30;0.25;;;;;;;10.03;71.48;151195.97;10379290;28;20125;-70
2023/11/05 01:32:39;;;;;;;0.40;0.38;;;;;;;9.99;71.30;151185.66;10379273;28;20065;-70
2023/11/05 01:37:41;;;;;;;0.98;0.40;;;;;;;10.00;71.28;151188.22;10380261;28;20041;-70
2023/11/05 01:42:42;;;;;;;0.30;0.30;;;;;;;9.98;71.22;151183.06;10378815;28;20421;-70
2023/11/05 01:47:44;;;;;;;1.80;0.40;;;;;;;9.69;74.51;151110.78;10378550;28;20048;-70
2023/11/05 01:52:48;;;;;;;0.47;0.22;;;;;;;10.07;72.70;151207.59;10378424;28;20107;-71
2023/11/05 01:57:52;;;;;;;0.60;0.38;;;;;;;9.92;73.65;151167.63;10377788;28;20042;-70
2023/11/05 02:02:54;;;;;;;0.55;0.32;;;;;;;10.00;73.85;151189.50;10377983;28;20571;-70
2023/11/05 02:07:55;;;;;;;0.47;0.30;;;;;;;9.76;75.55;151127.59;10377846;28;20041;-71
2023/11/05 02:13:02;;;;;;;0.20;0.20;;;;;;;9.74;75.66;151123.72;10378672;28;20461;-70
2023/11/05 02:18:04;;;;;;;0.85;0.40;;;;;;;9.67;76.94;151104.38;10377565;28;20052;-70
2023/11/05 02:23:08;;;;;;;0.10;0.10;;;;;;;9.76;76.84;151127.59;10377582;28;20042;-70
2023/11/05 02:28:10;;;;;;;0.80;0.30;;;;;;;9.62;78.59;151091.47;10377062;28;20072;-70
2023/11/05 02:33:12;;;;;;;1.10;0.43;;;;;;;9.73;77.26;151121.13;10377029;28;20053;-71
2023/11/05 02:38:14;;;;;;;0.52;0.40;;;;;;;9.70;77.39;151113.41;10378353;28;20109;-71
2023/11/05 02:43:15;;;;;;;0.63;0.47;;;;;;;9.62;78.24;151091.47;10376679;28;20564;-71
2023/11/05 02:48:17;;;;;;;0.40;0.40;;;;;;;9.75;77.25;151125.00;10379108;28;20444;-71
2023/11/05 02:53:20;;;;;;;0.40;0.40;;;;;;;9.62;78.50;151091.47;10377878;28;20111;-71
2023/11/05 02:58:22;;;;;;;0.40;0.32;;;;;;;9.58;79.29;151083.72;10378630;28;20460;-71
2023/11/05 03:03:24;;;;;;;0.30;0.20;;;;;;;9.63;78.94;151094.03;10378563;28;20161;-70
2023/11/05 03:08:26;;;;;;;0.70;0.28;;;;;;;9.90;77.26;151162.41;10377046;28;20038;-70
2023/11/05 03:13:28;;;;;;;1.90;0.30;;;;;;;9.84;78.28;151149.53;10376878;28;20091;-71
2023/11/05 03:18:32;;;;;;;0.17;0.17;;;;;;;9.81;77.71;151140.47;10359138;28;20054;-71
2023/11/05 03:23:34;;;;;;;0.13;0.13;;;;;;;9.73;77.73;151119.81;10376230;28;20080;-71
2023/11/05 03:28:36;;;;;;;0.32;0.20;;;;;;;9.74;78.17;151122.41;10376864;28;20401;-71
2023/11/05 03:33:37;;;;;;;0.20;0.13;;;;;;;9.70;78.26;151113.41;10375154;28;20069;-71
2023/11/05 03:38:40;;;;;;;0.80;0.20;;;;;;;9.48;79.96;151057.94;10374685;28;20113;-71
2023/11/05 03:43:41;;;;;;;0.90;0.30;;;;;;;9.68;79.33;151106.94;10376043;28;20066;-70
2023/11/05 03:48:44;;;;;;;0.45;0.25;;;;;;;9.37;79.92;151028.22;10374631;28;20509;-70
2023/11/05 03:53:46;;;;;;;0.30;0.30;;;;;;;9.11;81.39;150963.72;10375429;28;20050;-72
2023/11/05 03:58:48;;;;;;;0.30;0.20;;;;;;;8.87;82.85;150901.84;10374325;28;20565;-70
2023/11/05 04:03:50;;;;;;;0.38;0.30;;;;;;;8.53;85.22;150818.03;10376093;28;20573;-71
2023/11/05 04:08:52;;;;;;;0.20;0.20;;;;;;;8.41;86.08;150787.13;10374746;28;20038;-71
2023/11/05 04:13:53;;;;;;;0.30;0.30;;;;;;;8.63;86.89;150842.50;10374077;28;20129;-70
2023/11/05 04:18:58;;;;;;;0.30;0.30;;;;;;;8.54;88.25;150820.66;10374333;28;20386;-70
2023/11/05 04:24:01;;;;;;;0.40;0.30;;;;;;;8.74;87.30;150870.91;10375567;28;20140;-71
2023/11/05 04:29:02;;;;;;;0.88;0.45;;;;;;;8.55;87.59;150821.94;10375295;28;20038;-70
2023/11/05 04:34:04;;;;;;;0.40;0.35;;;;;;;8.22;89.30;150738.06;10375765;28;20077;-70
2023/11/05 04:39:07;;;;;;;0.57;0.38;;;;;;;7.76;92.19;150622.13;10375019;28;20042;-70
2023/11/05 04:44:08;;;;;;;0.75;0.40;;;;;;;7.64;93.50;150592.47;10373993;28;20133;-70
2023/11/05 04:49:10;;;;;;;0.60;0.45;;;;;;;7.34;95.70;150517.75;10373952;28;20045;-70
2023/11/05 04:54:12;;;;;;;0.80;0.30;;;;;;;7.16;97.03;150471.38;10372737;28;20104;-70
2023/11/05 04:59:13;;;;;;;0.80;0.63;;;;;;;7.19;98.22;150477.84;10372911;28;20409;-69
2023/11/05 05:04:15;;;;;;;0.82;0.40;;;;;;;7.45;98.24;150543.53;10373525;28;20125;-70
2023/11/05 05:09:17;;;;;;;0.52;0.30;;;;;;;7.27;97.42;150498.47;10374036;28;20048;-70
2023/11/05 05:14:19;;;;;;;1.50;0.60;;;;;;;7.44;98.91;150542.25;10373889;28;20117;-70
2023/11/05 05:19:21;;;;;;;0.63;0.47;;;;;;;7.47;98.44;150549.94;10373668;28;20486;-70
2023/11/05 05:24:23;;;;;;;0.35;0.30;;;;;;;7.18;98.91;150475.28;10373311;28;20553;-70
2023/11/05 05:29:25;;;;;;;0.77;0.50;;;;;;;7.11;100.00;150458.50;10375083;28;20045;-71
2023/11/05 05:34:27;;;;;;;0.50;0.30;;;;;;;6.85;100.00;150391.56;10380449;28;20059;-69
2023/11/05 05:39:29;;;;;;;1.30;0.40;;;;;;;6.85;100.00;150391.56;10380765;28;20075;-70
2023/11/05 05:44:31;;;;;;;0.40;0.40;;;;;;;6.95;100.00;150418.63;10379735;28;20428;-71
2023/11/05 05:49:32;;;;;;;0.80;0.40;;;;;;;6.91;100.00;150407.03;10379932;28;20042;-71
2023/11/05 05:54:34;;;;;;;0.47;0.38;;;;;;;6.93;100.00;150413.44;10379859;28;20413;-70
2023/11/05 05:59:36;;;;;;;0.45;0.40;;;;;;;6.66;100.00;150343.94;10379402;28;20054;-70
2023/11/05 06:04:39;;;;;;;0.70;0.50;;;;;;;6.81;100.00;150382.53;10377611;28;20041;-71
2023/11/05 06:09:41;;;;;;;0.50;0.50;;;;;;;6.55;100.00;150316.88;10379186;28;20050;-71
2023/11/05 06:14:43;;;;;;;0.70;0.70;;;;;;;6.78;100.00;150376.13;10378868;28;20508;-70
2023/11/05 06:19:51;;;;;;;0.98;0.63;;;;;;;6.95;100.00;150417.28;10378775;28;20088;-70
2023/11/05 06:24:53;;;;;;;1.27;0.85;;;;;;;6.81;100.00;150382.53;10378666;28;20046;-70
2023/11/05 06:29:56;;;;;;;0.75;0.50;;;;;;;6.90;100.00;150405.72;10378857;28;20034;-70
2023/11/05 06:34:58;;;;;;;0.63;0.60;;;;;;;6.74;100.00;150365.81;10376874;28;20104;-70
2023/11/05 06:40:01;;;;;;;0.47;0.45;;;;;;;6.74;100.00;150365.81;10377843;28;20042;-70
2023/11/05 06:45:04;;;;;;;0.52;0.50;;;;;;;6.66;100.00;150345.22;10375848;28;20405;-70
2023/11/05 06:50:06;;;;;;;0.88;0.60;;;;;;;6.97;100.00;150423.75;10377575;28;20038;-70
2023/11/05 06:55:08;;;;;;;0.63;0.50;;;;;;;7.31;100.00;150510.03;10377898;28;20409;-70
2023/11/05 07:00:11;;;;;;;1.20;0.73;;;;;;;7.40;100.00;150531.94;10376045;28;20117;-70
2023/11/05 07:05:12;;;;;;;2.03;1.73;;;;;;;7.72;100.00;150613.09;10377035;28;20128;-71
2023/11/05 07:10:14;;;;;;;1.10;1.00;;;;;;;7.87;100.00;150650.44;10378071;28;20042;-71
2023/11/05 07:15:18;;;;;;;1.00;0.90;;;;;;;8.14;100.00;150718.72;10376680;28;20045;-71
2023/11/05 07:20:19;;;;;;;0.65;0.65;;;;;;;8.40;99.12;150784.50;10376937;28;20497;-71
2023/11/05 07:25:21;;;;;;;1.08;0.98;;;;;;;8.67;96.15;150851.53;10376641;28;20060;-72
2023/11/05 07:30:23;;;;;;;1.23;0.80;;;;;;;8.81;95.03;150888.97;10376353;28;20041;-72
2023/11/05 07:35:26;;;;;;;1.30;0.63;;;;;;;8.93;94.25;150918.59;10374806;28;20099;-71
2023/11/05 07:40:28;;;;;;;3.40;0.70;;;;;;;8.87;94.38;150901.84;10376314;28;20038;-72
2023/11/05 07:45:30;;;;;;;1.35;0.70;;;;;;;8.95;94.56;150922.50;10375844;28;20505;-72
2023/11/05 07:50:32;;;;;;;1.60;0.88;;;;;;;9.11;94.22;150963.72;10377129;28;20064;-73
2023/11/05 07:55:34;;;;;;;0.60;0.60;;;;;;;9.46;90.80;151052.75;10375009;28;20053;-72
2023/11/05 08:00:35;;;;;;;1.30;0.70;;;;;;;9.74;87.45;151123.72;10374286;28;20509;-73
2023/11/05 08:05:37;;;;;;;1.00;0.60;;;;;;;10.02;85.71;151193.41;10375471;28;20421;-71
2023/11/05 08:10:39;;;;;;;0.30;0.30;;;;;;;10.64;76.39;151349.66;10375590;28;20041;-72
2023/11/05 08:15:43;;;;;;;0.45;0.40;;;;;;;10.93;75.64;151424.53;10374585;28;20516;-72
2023/11/05 08:20:44;;;;;;;0.70;0.60;;;;;;;10.98;76.40;151437.47;10373766;28;20037;-72
2023/11/05 08:25:46;;;;;;;0.43;0.40;;;;;;;11.07;74.90;151460.72;10374561;28;20045;-72
2023/11/05 08:30:48;;;;;;;0.57;0.35;;;;;;;11.33;73.34;151525.28;10374438;28;20068;-72
2023/11/05 08:35:51;;;;;;;0.68;0.50;;;;;;;11.39;73.60;151539.53;10374973;28;20046;-72
2023/11/05 08:40:53;;;;;;;0.40;0.20;;;;;;;11.55;73.14;151582.19;10374399;28;20498;-73
2023/11/05 08:45:55;;;;;;;0.98;0.28;;;;;;;11.85;70.46;151657.13;10375244;28;20065;-73
2023/11/05 08:50:57;;;;;;;0.45;0.40;;;;;;;11.84;72.27;151654.56;10373775;28;20125;-72
2023/11/05 08:55:58;;;;;;;0.20;0.10;;;;;;;12.15;69.55;151732.13;10374082;28;20073;-73
2023/11/05 09:01:01;;;;;;;0.35;0.20;;;;;;;12.20;70.82;151745.03;10374055;28;20038;-73
2023/11/05 09:06:03;;;;;;;0.10;0.10;;;;;;;12.38;69.21;151792.88;10377538;28;20416;-71
2023/11/05 09:11:09;;;;;;;0.20;0.20;;;;;;;12.62;68.00;151853.66;10380168;28;20041;-73
2023/11/05 09:16:11;;;;;;;0.50;0.10;;;;;;;12.73;67.29;151880.81;10381527;28;20090;-72
2023/11/05 09:21:13;;;;;;;1.77;0.35;;;;;;;12.87;66.26;151917.00;10382498;28;20101;-72
2023/11/05 09:26:15;;;;;;;1.20;0.30;;;;;;;12.99;66.55;151945.50;10397054;28;20100;-72
2023/11/05 09:31:17;;;;;;;0.75;0.17;;;;;;;12.96;66.95;151937.72;10398702;28;20140;-73
2023/11/05 09:36:19;;;;;;;0.85;0.22;;;;;;;12.91;67.85;151924.78;10405519;28;20048;-72
2023/11/05 09:41:25;;;;;;;0.40;0.30;;;;;;;12.96;66.79;151939.00;10380870;28;20050;-72
2023/11/05 09:46:26;;;;;;;0.47;0.20;;;;;;;12.96;65.96;151939.00;10408558;28;20038;-72
2023/11/05 09:51:28;;;;;;;0.38;0.10;;;;;;;12.77;66.02;151889.88;10386423;28;20038;-72
2023/11/05 09:56:30;;;;;;;0.40;0.25;;;;;;;12.75;68.21;151884.66;10379757;28;20042;-72
2023/11/05 10:01:35;;;;;;;0.55;0.10;;;;;;;12.69;70.90;151870.44;10391883;28;20045;-72
2023/11/05 10:06:37;;;;;;;0.40;0.30;;;;;;;12.81;68.15;151900.22;10410743;28;20136;-72
2023/11/05 10:11:45;;;;;;;0.63;0.30;;;;;;;13.22;64.90;152003.69;10417084;28;20443;-72
2023/11/05 10:16:47;;;;;;;0.85;0.20;;;;;;;13.31;66.30;152027.03;10404729;28;20100;-72
2023/11/05 10:21:49;;;;;;;0.38;0.20;;;;;;;13.37;63.47;152043.88;10386891;28;20036;-71
2023/11/05 10:26:50;;;;;;;0.45;0.13;;;;;;;13.71;61.75;152127.94;10419329;28;20504;-73
2023/11/05 10:31:55;;;;;;;0.52;0.17;;;;;;;14.02;60.67;152208.19;10399939;28;20412;-72
2023/11/05 10:36:57;;;;;;;0.20;0.10;;;;;;;13.96;59.54;152192.69;10378789;28;20050;-72
2023/11/05 10:42:00;;;;;;;0.28;0.10;;;;;;;13.87;60.65;152169.38;10379617;28;20053;-72
2023/11/05 10:47:03;;;;;;;0.43;0.20;;;;;;;13.83;60.13;152160.31;10377372;28;20137;-72
2023/11/05 10:52:10;;;;;;;0.47;0.30;;;;;;;13.77;60.35;152143.50;10379728;28;20034;-73
2023/11/05 10:57:45;;;;;;;0.50;0.17;;;;;;;13.69;60.89;152122.81;10378691;28;20460;-71
2023/11/05 11:02:48;;;;;;;0.65;0.20;;;;;;;13.82;61.37;152156.44;10377271;28;20045;-71
2023/11/05 11:07:56;;;;;;;0.65;0.20;;;;;;;13.95;60.35;152188.81;10377159;28;20497;-71
2023/11/05 11:13:12;;;;;;;0.30;0.10;;;;;;;14.01;59.77;152205.63;10377257;28;20033;-71
2023/11/05 11:18:18;;;;;;;1.27;0.20;;;;;;;14.07;59.50;152221.13;10377599;28;20401;-72
2023/11/05 11:23:21;;;;;;;0.10;0.10;;;;;;;14.23;59.74;152261.28;10376947;28;20493;-70
2023/11/05 11:28:23;;;;;;;0.45;0.20;;;;;;;14.32;58.57;152283.28;10376344;28;20049;-72
2023/11/05 11:33:27;;;;;;;0.38;0.10;;;;;;;14.35;59.65;152292.38;10375075;28;20049;-70
2023/11/05 11:38:29;;;;;;;0.15;0.10;;;;;;;14.59;58.00;152351.97;10377187;28;20064;-71
2023/11/05 11:43:31;;;;;;;0.20;0.10;;;;;;;14.43;59.54;152310.47;10375936;28;20046;-71
2023/11/05 11:48:33;;;;;;;0.95;0.35;;;;;;;14.60;59.20;152354.53;10376585;28;20054;-71
2023/11/05 11:53:39;;;;;;;0.68;0.40;;;;;;;14.83;56.11;152414.16;10376104;28;20135;-72
2023/11/05 11:58:41;;;;;;;0.10;0.10;;;;;;;14.77;56.00;152397.28;10374605;28;20121;-72
2023/11/05 12:03:44;;;;;;;0.10;0.10;;;;;;;14.71;56.44;152381.78;10376786;28;20056;-72
2023/11/05 12:08:49;;;;;;;1.00;0.20;;;;;;;14.46;56.88;152319.53;10377793;28;20045;-71
2023/11/05 12:13:54;;;;;;;0.10;0.10;;;;;;;14.17;57.64;152245.78;10362473;28;20081;-72
2023/11/05 12:18:57;;;;;;;0.03;0.00;;;;;;;13.83;62.44;152159.03;10378855;28;20575;-71
2023/11/05 12:24:00;;;;;;;0.65;0.13;;;;;;;13.20;70.56;151999.81;10378750;28;20065;-72
2023/11/05 12:29:02;;;;;;;0.43;0.10;;;;;;;12.62;77.67;151852.38;10380375;28;20513;-73
2023/11/05 12:34:05;;;;;;;0.10;0.10;;;;;;;12.22;82.12;151751.53;10367223;28;20050;-73
2023/11/05 12:39:08;;;;;;;0.35;0.10;;;;;;;12.10;83.05;151720.50;10365784;28;20042;-73
2023/11/05 12:44:11;;;;;;;0.45;0.15;;;;;;;12.09;84.02;151717.91;10388486;28;20046;-73
2023/11/05 12:49:15;;;;;;;1.33;0.30;;;;;;;11.93;83.63;151677.84;10387434;28;20561;-72
2023/11/05 12:54:17;;;;;;;0.50;0.20;;;;;;;11.79;84.95;151641.59;10386761;28;20038;-73
2023/11/05 12:59:20;;;;;;;0.10;0.10;;;;;;;11.61;88.35;151597.66;10388111;28;20494;-71
2023/11/05 13:04:24;;;;;;;0.30;0.20;;;;;;;11.55;88.68;151580.84;10397115;28;20489;-71
2023/11/05 13:09:32;;;;;;;4.13;2.55;;;;;;;11.48;88.87;151562.78;10395676;28;20045;-75
2023/11/05 13:14:35;;;;;;;0.20;0.10;;;;;;;11.61;86.00;151597.66;10391937;28;20045;-75
2023/11/05 13:19:38;;;;;;;12.48;3.78;;;;;;;11.73;83.72;151626.06;10391902;28;20074;-75
2023/11/05 13:24:44;;;;;;;0.65;0.20;;;;;;;11.98;82.83;151690.75;10390684;28;20457;-75
2023/11/05 13:29:54;;;;;;;0.35;0.28;;;;;;;12.00;81.53;151694.66;10382858;28;20048;-75
2023/11/05 13:34:56;;;;;;;0.60;0.30;;;;;;;12.30;78.45;151770.88;10381111;28;20486;-75
2023/11/05 13:39:59;;;;;;;5.88;4.45;;;;;;;12.63;77.10;151854.94;10380230;28;20049;-75
2023/11/05 13:45:01;;;;;;;0.30;0.20;;;;;;;12.73;77.29;151880.81;10380527;28;20125;-76
2023/11/05 13:50:06;;;;;;;0.40;0.30;;;;;;;12.69;76.07;151869.16;10379363;28;20046;-76
2023/11/05 13:55:08;;;;;;;0.50;0.38;;;;;;;12.67;75.68;151864.03;10380794;28;20573;-77
2023/11/05 14:00:13;;;;;;;0.30;0.20;;;;;;;12.55;74.01;151835.53;10379772;28;20501;-75
2023/11/05 14:05:16;;;;;;;0.32;0.30;;;;;;;12.58;74.38;151843.31;10379809;28;20042;-75
2023/11/05 14:10:18;;;;;;;0.55;0.20;;;;;;;12.65;72.86;151858.81;10378930;28;20042;-75
2023/11/05 14:15:20;;;;;;;0.47;0.25;;;;;;;12.60;72.10;151848.47;10379531;28;20456;-75
2023/11/05 14:20:22;;;;;;;0.65;0.47;;;;;;;12.50;73.25;151821.34;10378737;28;20048;-75
2023/11/05 14:25:23;;;;;;;0.20;0.20;;;;;;;12.50;72.63;151822.63;10379326;28;20045;-75
2023/11/05 14:30:25;;;;;;;0.93;0.40;;;;;;;12.38;74.86;151792.88;10379077;28;20045;-75
2023/11/05 14:35:27;;;;;;;0.22;0.22;;;;;;;12.45;74.93;151809.69;10378659;28;20050;-74
2023/11/05 14:40:29;;;;;;;0.32;0.20;;;;;;;12.40;75.77;151796.78;10378245;28;20453;-75
2023/11/05 14:45:31;;;;;;;0.90;0.30;;;;;;;12.37;78.22;151789.00;10379348;28;20116;-75
2023/11/05 14:50:37;;;;;;;0.47;0.40;;;;;;;12.44;75.37;151805.78;10380035;28;20042;-76
2023/11/05 14:55:39;;;;;;;0.68;0.20;;;;;;;12.52;73.48;151827.78;10362397;28;20561;-75
2023/11/05 15:00:41;;;;;;;0.20;0.10;;;;;;;12.56;71.46;151836.84;10380690;28;20475;-74
2023/11/05 15:05:44;;;;;;;0.50;0.45;;;;;;;12.35;73.38;151785.16;10376812;28;20116;-74
2023/11/05 15:10:46;;;;;;;0.13;0.10;;;;;;;12.40;72.99;151795.50;10377140;28;20440;-75
2023/11/05 15:15:48;;;;;;;0.40;0.13;;;;;;;12.36;73.00;151787.72;10377601;28;20053;-75
2023/11/05 15:20:50;;;;;;;0.10;0.10;;;;;;;12.15;75.56;151732.13;10376886;28;20042;-74
2023/11/05 15:25:52;;;;;;;0.52;0.50;;;;;;;12.03;76.29;151703.66;10377210;28;20045;-75
2023/11/05 15:30:55;;;;;;;0.25;0.17;;;;;;;12.07;76.81;151712.72;10376248;28;20038;-75
2023/11/05 15:35:57;;;;;;;0.20;0.20;;;;;;;12.05;75.89;151708.88;10377171;28;20046;-74
2023/11/05 15:40:59;;;;;;;0.20;0.10;;;;;;;12.07;76.18;151712.72;10376484;28;20042;-74
2023/11/05 15:46:03;;;;;;;0.10;0.10;;;;;;;11.98;76.26;151690.75;10376641;28;20049;-74
2023/11/05 15:51:06;;;;;;;0.40;0.13;;;;;;;11.93;77.26;151677.84;10375099;28;20041;-74
2023/11/05 15:56:08;;;;;;;0.15;0.10;;;;;;;11.92;77.36;151675.25;10376469;28;20042;-74
2023/11/05 16:01:12;;;;;;;0.30;0.20;;;;;;;12.02;76.59;151699.81;10377422;28;20508;-75
2023/11/05 16:06:14;;;;;;;0.55;0.30;;;;;;;11.96;77.39;151684.31;10377182;28;20046;-75
2023/11/05 16:11:15;;;;;;;2.05;1.30;;;;;;;12.07;76.25;151712.72;10376303;28;20053;-75
2023/11/05 16:16:18;;;;;;;0.25;0.20;;;;;;;11.92;77.74;151675.25;10374957;28;20042;-75
2023/11/05 16:21:20;;;;;;;0.17;0.10;;;;;;;11.99;77.68;151692.03;10376210;28;20494;-74
2023/11/05 16:26:21;;;;;;;0.03;0.03;;;;;;;12.02;77.38;151701.09;10376485;28;20046;-75
2023/11/05 16:31:25;;;;;;;0.40;0.20;;;;;;;12.02;77.40;151701.09;10375721;28;20057;-75
2023/11/05 16:36:27;;;;;;;0.60;0.30;;;;;;;11.93;78.84;151677.84;10376650;28;20049;-75
2023/11/05 16:41:30;;;;;;;0.38;0.10;;;;;;;11.95;79.05;151681.69;10374964;28;20069;-74
2023/11/05 16:46:32;;;;;;;0.10;0.10;;;;;;;12.00;79.31;151694.66;10375467;28;20460;-74
2023/11/05 16:51:36;;;;;;;0.28;0.10;;;;;;;12.03;79.68;151703.66;10376847;28;20052;-75
2023/11/05 16:56:49;;;;;;;0.47;0.20;;;;;;;12.06;79.60;151711.44;10376889;28;20061;-75
2023/11/05 17:01:52;;;;;;;0.10;0.10;;;;;;;12.03;80.20;151702.38;10377547;28;20138;-75
2023/11/05 17:06:55;;;;;;;0.05;0.05;;;;;;;12.10;79.21;151721.78;10376648;28;20040;-74
2023/11/05 17:11:57;;;;;;;0.75;0.20;;;;;;;12.10;79.33;151721.78;10376557;28;20092;-75
2023/11/05 17:16:59;;;;;;;0.10;0.10;;;;;;;12.00;79.29;151695.94;10374352;28;20050;-74
2023/11/05 17:22:01;;;;;;;0.10;0.10;;;;;;;12.08;78.39;151716.59;10373992;28;20038;-74
2023/11/05 17:27:05;;;;;;;0.20;0.10;;;;;;;12.07;78.37;151712.72;10378412;28;20042;-74
2023/11/05 17:32:08;;;;;;;0.20;0.10;;;;;;;12.04;78.00;151704.94;10383001;28;20045;-74
2023/11/05 17:37:10;;;;;;;0.20;0.10;;;;;;;11.96;78.20;151685.59;10382905;28;20042;-74
2023/11/05 17:42:13;;;;;;;0.32;0.20;;;;;;;12.02;77.36;151701.09;10387401;28;20069;-75
2023/11/05 17:47:16;;;;;;;0.45;0.30;;;;;;;12.00;78.88;151694.66;10384227;28;20141;-73
2023/11/05 17:52:18;;;;;;;1.08;0.70;;;;;;;11.92;78.98;151675.25;10380643;28;20469;-73
2023/11/05 17:57:20;;;;;;;0.50;0.35;;;;;;;11.68;81.52;151614.44;10380223;28;20432;-73
2023/11/05 18:02:23;;;;;;;1.13;0.60;;;;;;;11.72;81.01;151624.78;10363133;28;20050;-72
2023/11/05 18:07:25;;;;;;;0.38;0.13;;;;;;;11.70;81.31;151618.34;10381103;28;20413;-74
2023/11/05 18:12:27;;;;;;;1.88;0.90;;;;;;;11.54;82.54;151579.56;10381671;28;20208;-74
2023/11/05 18:17:29;;;;;;;1.15;0.90;;;;;;;11.68;81.44;151614.44;10381473;28;20593;-73
2023/11/05 18:22:31;;;;;;;0.55;0.35;;;;;;;11.52;82.49;151574.41;10381144;28;20133;-73
2023/11/05 18:27:33;;;;;;;0.68;0.10;;;;;;;11.57;81.69;151587.31;10380887;28;20096;-73
2023/11/05 18:32:35;;;;;;;0.95;0.30;;;;;;;11.44;83.41;151553.72;10379343;28;20046;-73
2023/11/05 18:37:37;;;;;;;0.40;0.22;;;;;;;11.57;82.12;151587.31;10379039;28;20046;-74
2023/11/05 18:42:39;;;;;;;0.68;0.40;;;;;;;11.64;81.88;151604.09;10381445;28;20044;-74
2023/11/05 18:47:41;;;;;;;0.22;0.20;;;;;;;11.45;82.47;151556.31;10380517;28;20045;-76
2023/11/05 18:52:43;;;;;;;1.08;0.50;;;;;;;11.49;81.96;151565.34;10380922;28;20045;-73
2023/11/05 18:57:45;;;;;;;0.20;0.10;;;;;;;11.53;81.08;151576.97;10380449;28;20468;-74
2023/11/05 19:02:49;;;;;;;1.00;0.10;;;;;;;11.59;80.20;151592.47;10379526;28;20042;-74
2023/11/05 19:07:51;;;;;;;0.20;0.10;;;;;;;11.52;80.12;151573.13;10362792;28;20053;-71
2023/11/05 19:12:53;;;;;;;0.30;0.30;;;;;;;11.44;80.44;151552.44;10381529;28;20042;-71
2023/11/05 19:17:55;;;;;;;0.30;0.20;;;;;;;11.52;78.94;151574.41;10383316;28;20429;-71
2023/11/05 19:22:57;;;;;;;0.75;0.10;;;;;;;11.46;78.82;151558.88;10377916;28;20050;-73
2023/11/05 19:27:59;;;;;;;0.17;0.10;;;;;;;11.57;76.99;151587.31;10378242;28;20049;-72
2023/11/05 19:33:01;;;;;;;0.28;0.17;;;;;;;11.54;77.30;151579.56;10378500;28;20069;-72
2023/11/05 19:38:03;;;;;;;0.20;0.20;;;;;;;11.60;76.56;151593.81;10378524;28;20049;-72
2023/11/05 19:43:05;;;;;;;0.00;0.00;;;;;;;11.47;77.48;151561.50;10379066;28;20042;-72
2023/11/05 19:48:06;;;;;;;0.10;0.10;;;;;;;11.50;77.51;151569.22;10378764;28;20044;-72
2023/11/05 19:53:08;;;;;;;0.10;0.10;;;;;;;11.45;78.95;151556.31;10378659;28;20049;-72
2023/11/05 19:58:13;;;;;;;0.00;0.00;;;;;;;11.46;80.06;151557.59;10378522;28;20069;-72
2023/11/05 20:03:15;;;;;;;0.28;0.20;;;;;;;11.41;81.47;151545.97;10379177;28;20121;-72
2023/11/05 20:08:17;;;;;;;0.13;0.10;;;;;;;11.53;81.23;151575.69;10375990;28;20045;-72
2023/11/05 20:13:19;;;;;;;0.52;0.22;;;;;;;11.51;80.57;151571.84;10376143;28;20057;-71
2023/11/05 20:18:21;;;;;;;0.17;0.10;;;;;;;11.48;80.54;151562.78;10376997;28;20077;-73
2023/11/05 20:23:23;;;;;;;0.40;0.10;;;;;;;11.45;79.99;151556.31;10376228;28;20046;-72
2023/11/05 20:28:25;;;;;;;0.30;0.20;;;;;;;11.23;81.85;151499.47;10377147;28;20057;-71
2023/11/05 20:33:27;;;;;;;0.45;0.25;;;;;;;11.28;80.76;151512.38;10378104;28;20041;-72
2023/11/05 20:38:29;;;;;;;0.20;0.15;;;;;;;11.44;79.40;151553.72;10377384;28;20050;-72
2023/11/05 20:43:30;;;;;;;0.63;0.20;;;;;;;11.47;78.79;151561.50;10375718;28;20069;-71
2023/11/05 20:48:32;;;;;;;0.17;0.10;;;;;;;11.42;78.20;151548.59;10377018;28;20476;-72
2023/11/05 20:53:34;;;;;;;0.15;0.15;;;;;;;11.51;76.95;151570.50;10377489;28;20089;-71
2023/11/05 20:58:43;;;;;;;0.10;0.10;;;;;;;11.51;77.14;151570.50;10375385;28;20050;-71
2023/11/05 21:03:45;;;;;;;0.13;0.10;;;;;;;11.56;76.65;151583.47;10381513;28;20046;-72
2023/11/05 21:08:47;;;;;;;0.32;0.20;;;;;;;11.45;76.97;151556.31;10382988;28;20585;-73
2023/11/05 21:13:49;;;;;;;0.10;0.10;;;;;;;11.57;76.52;151586.03;10384214;28;20042;-72
2023/11/05 21:18:51;;;;;;;0.20;0.20;;;;;;;11.62;76.36;151600.22;10367179;28;20552;-72
2023/11/05 21:23:53;;;;;;;0.28;0.20;;;;;;;11.60;76.35;151595.09;10384686;28;20038;-71
2023/11/05 21:28:55;;;;;;;0.68;0.20;;;;;;;11.58;75.75;151589.91;10383039;28;20050;-72
2023/11/05 21:33:57;;;;;;;0.85;0.20;;;;;;;11.57;74.55;151586.03;10383081;28;20042;-73
2023/11/05 21:38:59;;;;;;;0.50;0.25;;;;;;;11.39;75.23;151540.81;10383600;28;20046;-71
2023/11/05 21:44:02;;;;;;;2.03;0.20;;;;;;;11.28;76.36;151512.38;10382608;28;20038;-73
2023/11/05 21:49:04;;;;;;;0.13;0.13;;;;;;;11.33;77.03;151525.28;10381382;28;20089;-72
2023/11/05 21:54:06;;;;;;;0.17;0.17;;;;;;;11.21;78.60;151494.31;10383384;28;20073;-71
2023/11/05 21:59:08;;;;;;;0.30;0.20;;;;;;;11.26;77.60;151508.50;10382189;28;20437;-71
2023/11/05 22:04:09;;;;;;;0.80;0.20;;;;;;;11.28;76.53;151513.66;10380680;28;20042;-71
2023/11/05 22:09:12;;;;;;;0.15;0.15;;;;;;;11.27;74.93;151511.09;10380945;28;20061;-70
2023/11/05 22:14:14;;;;;;;0.73;0.30;;;;;;;11.22;73.51;151496.88;10381884;28;20398;-71
2023/11/05 22:19:16;;;;;;;0.55;0.30;;;;;;;11.30;71.90;151517.56;10382424;28;20048;-70
2023/11/05 22:24:18;;;;;;;0.82;0.20;;;;;;;11.33;70.84;151526.63;10380469;28;20042;-70
2023/11/05 22:29:20;;;;;;;0.10;0.10;;;;;;;11.19;70.48;151489.13;10381860;28;20391;-71
2023/11/05 22:34:22;;;;;;;0.13;0.13;;;;;;;11.09;69.84;151464.59;10379970;28;20049;-71
2023/11/05 22:39:24;;;;;;;1.23;0.15;;;;;;;11.17;68.21;151483.97;10380585;28;20045;-70
2023/11/05 22:44:27;;;;;;;0.73;0.20;;;;;;;11.11;68.21;151469.72;10381255;28;20128;-70
2023/11/05 22:49:28;;;;;;;0.28;0.15;;;;;;;11.03;68.39;151450.41;10380551;28;20045;-70
2023/11/05 22:54:30;;;;;;;0.55;0.30;;;;;;;10.81;68.99;151394.84;10377561;28;20042;-70
2023/11/05 22:59:32;;;;;;;0.80;0.20;;;;;;;10.99;67.05;151440.06;10377692;28;20116;-71
2023/11/05 23:04:34;;;;;;;0.20;0.20;;;;;;;10.90;67.03;151416.81;10376821;28;20057;-70
2023/11/05 23:09:35;;;;;;;0.30;0.13;;;;;;;10.95;66.21;151429.72;10377248;28;20466;-70
2023/11/05 23:14:37;;;;;;;0.73;0.30;;;;;;;10.71;67.05;151367.72;10376932;28;20124;-69